sensor_id;sensor_type;location;lat;lon;timestamp;pressure;altitude;pressure_sealevel;temperature
20058;BMP180;10189;49.546;7.906;2022-11-15T00:02:34;97767.00;;;13.40
20058;BMP180;10189;49.546;7.906;2022-11-15T00:05:19;97758.00;;;13.30
20058;BMP180;10189;49.546;7.906;2022-11-15T00:08:04;97757.00;;;13.40
20058;BMP180;10189;49.546;7.906;2022-11-15T00:10:56;97753.00;;;13.30
20058;BMP180;10189;49.546;7.906;2022-11-15T00:13:41;97750.00;;;13.40
20058;BMP180;10189;49.546;7.906;2022-11-15T00:16:25;97745.00;;;13.40
20058;BMP180;10189;49.546;7.906;2022-11-15T00:19:10;97748.00;;;13.30
20058;BMP180;10189;49.546;7.906;2022-11-15T00:21:55;97747.00;;;13.50
20058;BMP180;10189;49.546;7.906;2022-11-15T00:24:39;97747.00;;;13.40
20058;BMP180;10189;49.546;7.906;2022-11-15T00:27:24;97745.00;;;13.50
20058;BMP180;10189;49.546;7.906;2022-11-15T00:30:10;97739.00;;;13.50
20058;BMP180;10189;49.546;7.906;2022-11-15T00:32:55;97744.00;;;13.50
20058;BMP180;10189;49.546;7.906;2022-11-15T00:35:39;97741.00;;;13.70
20058;BMP180;10189;49.546;7.906;2022-11-15T00:38:24;97738.00;;;13.80
20058;BMP180;10189;49.546;7.906;2022-11-15T00:41:09;97746.00;;;13.80
20058;BMP180;10189;49.546;7.906;2022-11-15T00:43:53;97744.00;;;13.60
20058;BMP180;10189;49.546;7.906;2022-11-15T00:46:37;97734.00;;;13.80
20058;BMP180;10189;49.546;7.906;2022-11-15T00:49:22;97732.00;;;13.70
20058;BMP180;10189;49.546;7.906;2022-11-15T00:52:07;97728.00;;;13.80
20058;BMP180;10189;49.546;7.906;2022-11-15T00:54:51;97730.00;;;13.90
20058;BMP180;10189;49.546;7.906;2022-11-15T00:57:36;97724.00;;;13.80
20058;BMP180;10189;49.546;7.906;2022-11-15T01:00:20;97722.00;;;13.80
20058;BMP180;10189;49.546;7.906;2022-11-15T01:03:05;97720.00;;;13.80
20058;BMP180;10189;49.546;7.906;2022-11-15T01:05:49;97725.00;;;13.90
20058;BMP180;10189;49.546;7.906;2022-11-15T01:08:38;97721.00;;;13.90
20058;BMP180;10189;49.546;7.906;2022-11-15T01:11:22;97719.00;;;13.90
20058;BMP180;10189;49.546;7.906;2022-11-15T01:14:07;97722.00;;;13.90
20058;BMP180;10189;49.546;7.906;2022-11-15T01:16:52;97713.00;;;14.00
20058;BMP180;10189;49.546;7.906;2022-11-15T01:19:36;97716.00;;;14.00
20058;BMP180;10189;49.546;7.906;2022-11-15T01:22:21;97715.00;;;14.00
20058;BMP180;10189;49.546;7.906;2022-11-15T01:25:05;97705.00;;;14.00
20058;BMP180;10189;49.546;7.906;2022-11-15T01:27:50;97704.00;;;14.00
20058;BMP180;10189;49.546;7.906;2022-11-15T01:30:36;97706.00;;;13.90
20058;BMP180;10189;49.546;7.906;2022-11-15T01:33:20;97707.00;;;14.00
20058;BMP180;10189;49.546;7.906;2022-11-15T01:36:08;97697.00;;;14.00
20058;BMP180;10189;49.546;7.906;2022-11-15T01:38:55;97698.00;;;13.90
20058;BMP180;10189;49.546;7.906;2022-11-15T01:41:41;97699.00;;;14.00
20058;BMP180;10189;49.546;7.906;2022-11-15T01:47:36;97702.00;;;13.90
20058;BMP180;10189;49.546;7.906;2022-11-15T01:50:26;97715.00;;;14.00
20058;BMP180;10189;49.546;7.906;2022-11-15T01:53:14;97700.00;;;14.00
20058;BMP180;10189;49.546;7.906;2022-11-15T01:56:04;97689.00;;;14.00
20058;BMP180;10189;49.546;7.906;2022-11-15T01:58:51;97693.00;;;14.10
20058;BMP180;10189;49.546;7.906;2022-11-15T02:01:36;97688.00;;;14.10
20058;BMP180;10189;49.546;7.906;2022-11-15T02:04:43;97679.00;;;14.10
20058;BMP180;10189;49.546;7.906;2022-11-15T02:07:31;97674.00;;;14.10
20058;BMP180;10189;49.546;7.906;2022-11-15T02:10:22;97668.00;;;14.10
20058;BMP180;10189;49.546;7.906;2022-11-15T02:13:07;97664.00;;;14.10
20058;BMP180;10189;49.546;7.906;2022-11-15T02:22:51;97650.00;;;14.10
20058;BMP180;10189;49.546;7.906;2022-11-15T02:25:57;97650.00;;;14.20
20058;BMP180;10189;49.546;7.906;2022-11-15T02:32:24;97641.00;;;14.00
20058;BMP180;10189;49.546;7.906;2022-11-15T02:42:07;97639.00;;;14.00
20058;BMP180;10189;49.546;7.906;2022-11-15T02:45:22;97626.00;;;14.00
20058;BMP180;10189;49.546;7.906;2022-11-15T02:48:09;97621.00;;;14.00
20058;BMP180;10189;49.546;7.906;2022-11-15T02:50:54;97623.00;;;14.10
20058;BMP180;10189;49.546;7.906;2022-11-15T02:53:39;97632.00;;;14.10
20058;BMP180;10189;49.546;7.906;2022-11-15T02:56:24;97627.00;;;14.00
20058;BMP180;10189;49.546;7.906;2022-11-15T03:11:22;97613.00;;;14.00
20058;BMP180;10189;49.546;7.906;2022-11-15T03:14:30;97611.00;;;13.90
20058;BMP180;10189;49.546;7.906;2022-11-15T03:17:33;97611.00;;;14.00
20058;BMP180;10189;49.546;7.906;2022-11-15T03:20:19;97605.00;;;13.90
20058;BMP180;10189;49.546;7.906;2022-11-15T03:23:08;97614.00;;;13.90
20058;BMP180;10189;49.546;7.906;2022-11-15T03:25:56;97624.00;;;13.90
20058;BMP180;10189;49.546;7.906;2022-11-15T03:28:54;97611.00;;;14.00
20058;BMP180;10189;49.546;7.906;2022-11-15T03:31:45;97612.00;;;14.00
20058;BMP180;10189;49.546;7.906;2022-11-15T03:34:47;97614.00;;;14.00
20058;BMP180;10189;49.546;7.906;2022-11-15T03:37:42;97609.00;;;14.10
20058;BMP180;10189;49.546;7.906;2022-11-15T03:40:40;97614.00;;;14.00
20058;BMP180;10189;49.546;7.906;2022-11-15T03:43:53;97623.00;;;14.00
20058;BMP180;10189;49.546;7.906;2022-11-15T03:47:04;97617.00;;;13.90
20058;BMP180;10189;49.546;7.906;2022-11-15T03:49:57;97626.00;;;14.00
20058;BMP180;10189;49.546;7.906;2022-11-15T03:52:46;97625.00;;;14.00
20058;BMP180;10189;49.546;7.906;2022-11-15T03:55:32;97619.00;;;14.00
20058;BMP180;10189;49.546;7.906;2022-11-15T03:58:17;97613.00;;;14.00
20058;BMP180;10189;49.546;7.906;2022-11-15T04:01:01;97618.00;;;14.00
20058;BMP180;10189;49.546;7.906;2022-11-15T04:03:46;97616.00;;;14.00
20058;BMP180;10189;49.546;7.906;2022-11-15T04:06:30;97620.00;;;14.00
20058;BMP180;10189;49.546;7.906;2022-11-15T04:09:15;97620.00;;;14.00
20058;BMP180;10189;49.546;7.906;2022-11-15T04:11:59;97625.00;;;14.00
20058;BMP180;10189;49.546;7.906;2022-11-15T04:14:44;97630.00;;;13.90
20058;BMP180;10189;49.546;7.906;2022-11-15T04:17:52;97614.00;;;14.10
20058;BMP180;10189;49.546;7.906;2022-11-15T04:20:37;97610.00;;;13.90
20058;BMP180;10189;49.546;7.906;2022-11-15T04:23:40;97600.00;;;14.00
20058;BMP180;10189;49.546;7.906;2022-11-15T04:26:43;97607.00;;;14.00
20058;BMP180;10189;49.546;7.906;2022-11-15T04:29:27;97595.00;;;14.00
20058;BMP180;10189;49.546;7.906;2022-11-15T04:32:21;97595.00;;;13.90
20058;BMP180;10189;49.546;7.906;2022-11-15T04:35:06;97600.00;;;13.90
20058;BMP180;10189;49.546;7.906;2022-11-15T04:37:51;97594.00;;;13.90
20058;BMP180;10189;49.546;7.906;2022-11-15T04:40:37;97585.00;;;13.90
20058;BMP180;10189;49.546;7.906;2022-11-15T04:43:22;97589.00;;;13.90
20058;BMP180;10189;49.546;7.906;2022-11-15T04:46:06;97583.00;;;14.00
20058;BMP180;10189;49.546;7.906;2022-11-15T04:48:52;97586.00;;;13.80
20058;BMP180;10189;49.546;7.906;2022-11-15T04:51:36;97581.00;;;13.60
20058;BMP180;10189;49.546;7.906;2022-11-15T04:54:21;97581.00;;;13.50
20058;BMP180;10189;49.546;7.906;2022-11-15T04:57:06;97584.00;;;13.40
20058;BMP180;10189;49.546;7.906;2022-11-15T04:59:50;97580.00;;;13.30
20058;BMP180;10189;49.546;7.906;2022-11-15T05:02:35;97597.00;;;13.20
20058;BMP180;10189;49.546;7.906;2022-11-15T05:05:38;97585.00;;;13.20
20058;BMP180;10189;49.546;7.906;2022-11-15T05:08:23;97596.00;;;13.30
20058;BMP180;10189;49.546;7.906;2022-11-15T05:11:08;97597.00;;;13.30
20058;BMP180;10189;49.546;7.906;2022-11-15T05:13:53;97592.00;;;13.30
20058;BMP180;10189;49.546;7.906;2022-11-15T05:16:38;97592.00;;;13.40
20058;BMP180;10189;49.546;7.906;2022-11-15T05:19:23;97590.00;;;13.30
20058;BMP180;10189;49.546;7.906;2022-11-15T05:22:07;97597.00;;;13.40
20058;BMP180;10189;49.546;7.906;2022-11-15T05:24:52;97592.00;;;13.40
20058;BMP180;10189;49.546;7.906;2022-11-15T05:27:36;97592.00;;;13.30
20058;BMP180;10189;49.546;7.906;2022-11-15T05:30:21;97594.00;;;13.20
20058;BMP180;10189;49.546;7.906;2022-11-15T05:33:06;97599.00;;;13.10
20058;BMP180;10189;49.546;7.906;2022-11-15T05:35:57;97595.00;;;13.00
20058;BMP180;10189;49.546;7.906;2022-11-15T05:38:45;97587.00;;;12.80
20058;BMP180;10189;49.546;7.906;2022-11-15T05:41:56;97598.00;;;12.60
20058;BMP180;10189;49.546;7.906;2022-11-15T05:44:48;97590.00;;;12.60
20058;BMP180;10189;49.546;7.906;2022-11-15T05:47:35;97589.00;;;12.50
20058;BMP180;10189;49.546;7.906;2022-11-15T05:50:20;97585.00;;;12.40
20058;BMP180;10189;49.546;7.906;2022-11-15T05:53:06;97586.00;;;12.30
20058;BMP180;10189;49.546;7.906;2022-11-15T05:55:51;97586.00;;;12.20
20058;BMP180;10189;49.546;7.906;2022-11-15T05:58:37;97584.00;;;12.10
20058;BMP180;10189;49.546;7.906;2022-11-15T06:01:22;97585.00;;;11.90
20058;BMP180;10189;49.546;7.906;2022-11-15T06:04:07;97595.00;;;11.80
20058;BMP180;10189;49.546;7.906;2022-11-15T06:06:52;97591.00;;;11.80
20058;BMP180;10189;49.546;7.906;2022-11-15T06:09:36;97587.00;;;11.80
20058;BMP180;10189;49.546;7.906;2022-11-15T06:12:21;97586.00;;;11.80
20058;BMP180;10189;49.546;7.906;2022-11-15T06:15:06;97595.00;;;11.80
20058;BMP180;10189;49.546;7.906;2022-11-15T06:17:51;97575.00;;;11.90
20058;BMP180;10189;49.546;7.906;2022-11-15T06:20:36;97588.00;;;11.90
20058;BMP180;10189;49.546;7.906;2022-11-15T06:23:20;97583.00;;;11.90
20058;BMP180;10189;49.546;7.906;2022-11-15T06:26:05;97587.00;;;11.80
20058;BMP180;10189;49.546;7.906;2022-11-15T06:28:50;97581.00;;;11.80
20058;BMP180;10189;49.546;7.906;2022-11-15T06:31:35;97584.00;;;11.80
20058;BMP180;10189;49.546;7.906;2022-11-15T06:34:20;97590.00;;;11.80
20058;BMP180;10189;49.546;7.906;2022-11-15T06:37:04;97594.00;;;11.80
20058;BMP180;10189;49.546;7.906;2022-11-15T06:39:49;97604.00;;;11.80
20058;BMP180;10189;49.546;7.906;2022-11-15T06:42:34;97602.00;;;11.80
20058;BMP180;10189;49.546;7.906;2022-11-15T06:45:18;97595.00;;;11.70
20058;BMP180;10189;49.546;7.906;2022-11-15T06:48:03;97606.00;;;11.70
20058;BMP180;10189;49.546;7.906;2022-11-15T06:50:56;97605.00;;;11.70
20058;BMP180;10189;49.546;7.906;2022-11-15T06:53:41;97612.00;;;11.70
20058;BMP180;10189;49.546;7.906;2022-11-15T06:56:25;97615.00;;;11.80
20058;BMP180;10189;49.546;7.906;2022-11-15T06:59:10;97608.00;;;11.90
20058;BMP180;10189;49.546;7.906;2022-11-15T07:01:54;97602.00;;;11.90
20058;BMP180;10189;49.546;7.906;2022-11-15T07:04:39;97606.00;;;11.90
20058;BMP180;10189;49.546;7.906;2022-11-15T07:07:23;97600.00;;;11.90
20058;BMP180;10189;49.546;7.906;2022-11-15T07:10:09;97596.00;;;12.00
20058;BMP180;10189;49.546;7.906;2022-11-15T07:12:55;97605.00;;;12.00
20058;BMP180;10189;49.546;7.906;2022-11-15T07:15:40;97601.00;;;12.10
20058;BMP180;10189;49.546;7.906;2022-11-15T07:18:24;97596.00;;;12.20
20058;BMP180;10189;49.546;7.906;2022-11-15T07:21:10;97593.00;;;12.20
20058;BMP180;10189;49.546;7.906;2022-11-15T07:23:55;97593.00;;;12.30
20058;BMP180;10189;49.546;7.906;2022-11-15T07:26:40;97599.00;;;12.40
20058;BMP180;10189;49.546;7.906;2022-11-15T07:29:24;97600.00;;;12.50
20058;BMP180;10189;49.546;7.906;2022-11-15T07:32:09;97592.00;;;12.60
20058;BMP180;10189;49.546;7.906;2022-11-15T07:34:54;97600.00;;;12.70
20058;BMP180;10189;49.546;7.906;2022-11-15T07:37:38;97593.00;;;12.70
20058;BMP180;10189;49.546;7.906;2022-11-15T07:40:24;97595.00;;;12.80
20058;BMP180;10189;49.546;7.906;2022-11-15T07:43:09;97584.00;;;12.80
20058;BMP180;10189;49.546;7.906;2022-11-15T07:45:53;97585.00;;;12.80
20058;BMP180;10189;49.546;7.906;2022-11-15T07:48:39;97588.00;;;12.80
20058;BMP180;10189;49.546;7.906;2022-11-15T07:51:24;97591.00;;;12.90
20058;BMP180;10189;49.546;7.906;2022-11-15T07:54:09;97583.00;;;13.00
20058;BMP180;10189;49.546;7.906;2022-11-15T07:56:54;97588.00;;;13.00
20058;BMP180;10189;49.546;7.906;2022-11-15T07:59:39;97598.00;;;13.10
20058;BMP180;10189;49.546;7.906;2022-11-15T08:02:24;97581.00;;;13.20
20058;BMP180;10189;49.546;7.906;2022-11-15T08:05:08;97596.00;;;13.20
20058;BMP180;10189;49.546;7.906;2022-11-15T08:07:55;97588.00;;;13.30
20058;BMP180;10189;49.546;7.906;2022-11-15T08:10:40;97579.00;;;13.30
20058;BMP180;10189;49.546;7.906;2022-11-15T08:13:25;97573.00;;;13.40
20058;BMP180;10189;49.546;7.906;2022-11-15T08:16:09;97585.00;;;13.60
20058;BMP180;10189;49.546;7.906;2022-11-15T08:18:56;97578.00;;;13.70
20058;BMP180;10189;49.546;7.906;2022-11-15T08:21:40;97573.00;;;13.70
20058;BMP180;10189;49.546;7.906;2022-11-15T08:24:25;97568.00;;;13.90
20058;BMP180;10189;49.546;7.906;2022-11-15T08:27:09;97568.00;;;14.00
20058;BMP180;10189;49.546;7.906;2022-11-15T08:29:58;97566.00;;;14.10
20058;BMP180;10189;49.546;7.906;2022-11-15T08:32:43;97558.00;;;14.20
20058;BMP180;10189;49.546;7.906;2022-11-15T08:35:28;97558.00;;;14.30
20058;BMP180;10189;49.546;7.906;2022-11-15T08:38:13;97562.00;;;14.30
20058;BMP180;10189;49.546;7.906;2022-11-15T08:41:04;97559.00;;;14.40
20058;BMP180;10189;49.546;7.906;2022-11-15T08:43:48;97553.00;;;14.50
20058;BMP180;10189;49.546;7.906;2022-11-15T08:46:33;97551.00;;;14.50
20058;BMP180;10189;49.546;7.906;2022-11-15T08:49:18;97554.00;;;14.50
20058;BMP180;10189;49.546;7.906;2022-11-15T08:52:03;97547.00;;;14.60
20058;BMP180;10189;49.546;7.906;2022-11-15T08:54:47;97534.00;;;14.60
20058;BMP180;10189;49.546;7.906;2022-11-15T08:57:32;97543.00;;;14.60
20058;BMP180;10189;49.546;7.906;2022-11-15T09:00:17;97549.00;;;14.80
20058;BMP180;10189;49.546;7.906;2022-11-15T09:03:05;97541.00;;;14.90
20058;BMP180;10189;49.546;7.906;2022-11-15T09:05:55;97543.00;;;14.90
20058;BMP180;10189;49.546;7.906;2022-11-15T09:08:41;97533.00;;;14.80
20058;BMP180;10189;49.546;7.906;2022-11-15T09:11:25;97531.00;;;14.80
20058;BMP180;10189;49.546;7.906;2022-11-15T09:14:14;97532.00;;;14.80
20058;BMP180;10189;49.546;7.906;2022-11-15T09:17:00;97533.00;;;14.70
20058;BMP180;10189;49.546;7.906;2022-11-15T09:19:45;97527.00;;;14.60
20058;BMP180;10189;49.546;7.906;2022-11-15T09:22:30;97526.00;;;14.70
20058;BMP180;10189;49.546;7.906;2022-11-15T09:25:14;97522.00;;;14.60
20058;BMP180;10189;49.546;7.906;2022-11-15T09:27:59;97525.00;;;14.60
20058;BMP180;10189;49.546;7.906;2022-11-15T09:30:43;97528.00;;;14.80
20058;BMP180;10189;49.546;7.906;2022-11-15T09:33:28;97526.00;;;14.80
20058;BMP180;10189;49.546;7.906;2022-11-15T09:36:13;97520.00;;;14.80
20058;BMP180;10189;49.546;7.906;2022-11-15T09:38:58;97514.00;;;15.00
20058;BMP180;10189;49.546;7.906;2022-11-15T09:45:22;97529.00;;;15.20
20058;BMP180;10189;49.546;7.906;2022-11-15T09:51:25;97533.00;;;15.40
20058;BMP180;10189;49.546;7.906;2022-11-15T09:54:16;97532.00;;;15.40
20058;BMP180;10189;49.546;7.906;2022-11-15T09:56:47;97518.00;;;15.50
20058;BMP180;10189;49.546;7.906;2022-11-15T09:59:53;97524.00;;;15.60
20058;BMP180;10189;49.546;7.906;2022-11-15T10:04:58;97514.00;;;15.70
20058;BMP180;10189;49.546;7.906;2022-11-15T10:12:50;97501.00;;;15.60
20058;BMP180;10189;49.546;7.906;2022-11-15T10:15:18;97505.00;;;15.70
20058;BMP180;10189;49.546;7.906;2022-11-15T10:20:29;97497.00;;;16.10
20058;BMP180;10189;49.546;7.906;2022-11-15T10:23:04;97501.00;;;16.10
20058;BMP180;10189;49.546;7.906;2022-11-15T10:25:33;97493.00;;;16.00
20058;BMP180;10189;49.546;7.906;2022-11-15T10:28:26;97480.00;;;16.20
20058;BMP180;10189;49.546;7.906;2022-11-15T10:30:57;97481.00;;;16.10
20058;BMP180;10189;49.546;7.906;2022-11-15T10:33:37;97468.00;;;16.20
20058;BMP180;10189;49.546;7.906;2022-11-15T10:39:03;97449.00;;;16.40
20058;BMP180;10189;49.546;7.906;2022-11-15T10:41:32;97441.00;;;16.40
20058;BMP180;10189;49.546;7.906;2022-11-15T10:49:28;97422.00;;;16.60
20058;BMP180;10189;49.546;7.906;2022-11-15T10:54:48;97404.00;;;16.80
20058;BMP180;10189;49.546;7.906;2022-11-15T10:57:19;97407.00;;;16.80
20058;BMP180;10189;49.546;7.906;2022-11-15T10:59:55;97406.00;;;16.90
20058;BMP180;10189;49.546;7.906;2022-11-15T11:05:36;97386.00;;;17.00
20058;BMP180;10189;49.546;7.906;2022-11-15T11:10:37;97383.00;;;17.00
20058;BMP180;10189;49.546;7.906;2022-11-15T11:13:23;97383.00;;;17.10
20058;BMP180;10189;49.546;7.906;2022-11-15T11:22:03;97381.00;;;17.20
20058;BMP180;10189;49.546;7.906;2022-11-15T11:27:43;97380.00;;;16.80
20058;BMP180;10189;49.546;7.906;2022-11-15T11:33:12;97371.00;;;17.00
20058;BMP180;10189;49.546;7.906;2022-11-15T11:36:31;97377.00;;;16.80
20058;BMP180;10189;49.546;7.906;2022-11-15T11:45:47;97382.00;;;16.70
20058;BMP180;10189;49.546;7.906;2022-11-15T11:48:41;97365.00;;;16.60
20058;BMP180;10189;49.546;7.906;2022-11-15T11:51:26;97356.00;;;16.70
20058;BMP180;10189;49.546;7.906;2022-11-15T11:56:59;97363.00;;;16.90
20058;BMP180;10189;49.546;7.906;2022-11-15T11:59:36;97348.00;;;16.90
20058;BMP180;10189;49.546;7.906;2022-11-15T12:02:43;97351.00;;;17.10
20058;BMP180;10189;49.546;7.906;2022-11-15T12:08:25;97328.00;;;17.20
20058;BMP180;10189;49.546;7.906;2022-11-15T12:11:10;97326.00;;;17.20
20058;BMP180;10189;49.546;7.906;2022-11-15T12:13:38;97330.00;;;17.20
20058;BMP180;10189;49.546;7.906;2022-11-15T12:16:27;97323.00;;;17.30
20058;BMP180;10189;49.546;7.906;2022-11-15T12:18:56;97317.00;;;17.00
20058;BMP180;10189;49.546;7.906;2022-11-15T12:30:26;97296.00;;;17.50
20058;BMP180;10189;49.546;7.906;2022-11-15T12:33:00;97296.00;;;17.70
20058;BMP180;10189;49.546;7.906;2022-11-15T12:35:41;97287.00;;;17.90
20058;BMP180;10189;49.546;7.906;2022-11-15T12:38:12;97288.00;;;17.70
20058;BMP180;10189;49.546;7.906;2022-11-15T12:41:35;97282.00;;;17.70
20058;BMP180;10189;49.546;7.906;2022-11-15T12:44:03;97281.00;;;17.70
20058;BMP180;10189;49.546;7.906;2022-11-15T13:02:21;97243.00;;;17.30
20058;BMP180;10189;49.546;7.906;2022-11-15T13:04:50;97242.00;;;17.40
20058;BMP180;10189;49.546;7.906;2022-11-15T13:12:59;97231.00;;;17.30
20058;BMP180;10189;49.546;7.906;2022-11-15T13:18:40;97228.00;;;17.60
20058;BMP180;10189;49.546;7.906;2022-11-15T13:21:22;97222.00;;;17.70
20058;BMP180;10189;49.546;7.906;2022-11-15T13:24:16;97224.00;;;17.50
20058;BMP180;10189;49.546;7.906;2022-11-15T13:26:42;97213.00;;;17.30
20058;BMP180;10189;49.546;7.906;2022-11-15T13:29:17;97212.00;;;17.30
20058;BMP180;10189;49.546;7.906;2022-11-15T13:31:45;97219.00;;;17.30
20058;BMP180;10189;49.546;7.906;2022-11-15T13:34:30;97218.00;;;17.20
20058;BMP180;10189;49.546;7.906;2022-11-15T13:37:02;97215.00;;;17.10
20058;BMP180;10189;49.546;7.906;2022-11-15T13:39:32;97206.00;;;17.10
20058;BMP180;10189;49.546;7.906;2022-11-15T13:41:59;97212.00;;;17.20
20058;BMP180;10189;49.546;7.906;2022-11-15T13:44:31;97200.00;;;17.10
20058;BMP180;10189;49.546;7.906;2022-11-15T13:47:14;97198.00;;;16.90
20058;BMP180;10189;49.546;7.906;2022-11-15T13:49:40;97198.00;;;16.80
20058;BMP180;10189;49.546;7.906;2022-11-15T13:52:15;97183.00;;;16.90
20058;BMP180;10189;49.546;7.906;2022-11-15T13:55:17;97180.00;;;16.90
20058;BMP180;10189;49.546;7.906;2022-11-15T13:57:56;97178.00;;;16.90
20058;BMP180;10189;49.546;7.906;2022-11-15T14:00:40;97170.00;;;17.10
20058;BMP180;10189;49.546;7.906;2022-11-15T14:03:29;97164.00;;;17.00
20058;BMP180;10189;49.546;7.906;2022-11-15T14:06:12;97172.00;;;16.90
20058;BMP180;10189;49.546;7.906;2022-11-15T14:08:42;97158.00;;;16.80
20058;BMP180;10189;49.546;7.906;2022-11-15T14:11:22;97153.00;;;16.80
20058;BMP180;10189;49.546;7.906;2022-11-15T14:16:39;97145.00;;;16.70
20058;BMP180;10189;49.546;7.906;2022-11-15T14:19:09;97135.00;;;16.60
20058;BMP180;10189;49.546;7.906;2022-11-15T14:21:35;97133.00;;;16.50
20058;BMP180;10189;49.546;7.906;2022-11-15T14:24:19;97130.00;;;16.60
20058;BMP180;10189;49.546;7.906;2022-11-15T14:26:46;97132.00;;;16.70
20058;BMP180;10189;49.546;7.906;2022-11-15T14:29:29;97135.00;;;16.60
20058;BMP180;10189;49.546;7.906;2022-11-15T14:32:23;97128.00;;;16.50
20058;BMP180;10189;49.546;7.906;2022-11-15T14:34:56;97131.00;;;16.40
20058;BMP180;10189;49.546;7.906;2022-11-15T14:37:33;97127.00;;;16.40
20058;BMP180;10189;49.546;7.906;2022-11-15T14:40:05;97128.00;;;16.30
20058;BMP180;10189;49.546;7.906;2022-11-15T14:42:31;97121.00;;;16.30
20058;BMP180;10189;49.546;7.906;2022-11-15T14:44:58;97125.00;;;16.30
20058;BMP180;10189;49.546;7.906;2022-11-15T14:47:24;97124.00;;;16.20
20058;BMP180;10189;49.546;7.906;2022-11-15T14:49:49;97111.00;;;16.20
20058;BMP180;10189;49.546;7.906;2022-11-15T14:52:30;97109.00;;;16.10
20058;BMP180;10189;49.546;7.906;2022-11-15T14:55:00;97112.00;;;16.00
20058;BMP180;10189;49.546;7.906;2022-11-15T14:57:28;97114.00;;;16.00
20058;BMP180;10189;49.546;7.906;2022-11-15T14:59:54;97114.00;;;16.00
20058;BMP180;10189;49.546;7.906;2022-11-15T15:02:26;97112.00;;;15.90
20058;BMP180;10189;49.546;7.906;2022-11-15T15:04:53;97115.00;;;15.80
20058;BMP180;10189;49.546;7.906;2022-11-15T15:07:19;97116.00;;;15.80
20058;BMP180;10189;49.546;7.906;2022-11-15T15:09:46;97107.00;;;15.70
20058;BMP180;10189;49.546;7.906;2022-11-15T15:12:21;97105.00;;;15.70
20058;BMP180;10189;49.546;7.906;2022-11-15T15:14:49;97101.00;;;15.70
20058;BMP180;10189;49.546;7.906;2022-11-15T15:17:17;97094.00;;;15.60
20058;BMP180;10189;49.546;7.906;2022-11-15T15:19:43;97089.00;;;15.60
20058;BMP180;10189;49.546;7.906;2022-11-15T15:22:20;97087.00;;;15.60
20058;BMP180;10189;49.546;7.906;2022-11-15T15:24:51;97092.00;;;15.60
20058;BMP180;10189;49.546;7.906;2022-11-15T15:27:17;97080.00;;;15.50
20058;BMP180;10189;49.546;7.906;2022-11-15T15:29:43;97085.00;;;15.40
20058;BMP180;10189;49.546;7.906;2022-11-15T15:32:16;97087.00;;;15.40
20058;BMP180;10189;49.546;7.906;2022-11-15T15:34:42;97085.00;;;15.40
20058;BMP180;10189;49.546;7.906;2022-11-15T15:37:26;97096.00;;;15.30
20058;BMP180;10189;49.546;7.906;2022-11-15T15:39:56;97091.00;;;15.20
20058;BMP180;10189;49.546;7.906;2022-11-15T15:42:23;97084.00;;;15.20
20058;BMP180;10189;49.546;7.906;2022-11-15T15:44:50;97084.00;;;15.10
20058;BMP180;10189;49.546;7.906;2022-11-15T15:47:23;97080.00;;;15.10
20058;BMP180;10189;49.546;7.906;2022-11-15T15:49:50;97069.00;;;15.00
20058;BMP180;10189;49.546;7.906;2022-11-15T15:52:17;97072.00;;;15.00
20058;BMP180;10189;49.546;7.906;2022-11-15T15:54:43;97075.00;;;15.00
20058;BMP180;10189;49.546;7.906;2022-11-15T15:57:12;97076.00;;;15.00
20058;BMP180;10189;49.546;7.906;2022-11-15T15:59:38;97071.00;;;15.00
20058;BMP180;10189;49.546;7.906;2022-11-15T16:02:05;97061.00;;;14.90
20058;BMP180;10189;49.546;7.906;2022-11-15T16:04:30;97056.00;;;14.90
20058;BMP180;10189;49.546;7.906;2022-11-15T16:07:00;97051.00;;;14.90
20058;BMP180;10189;49.546;7.906;2022-11-15T16:09:27;97048.00;;;14.90
20058;BMP180;10189;49.546;7.906;2022-11-15T16:12:11;97050.00;;;14.80
20058;BMP180;10189;49.546;7.906;2022-11-15T16:14:37;97042.00;;;15.00
20058;BMP180;10189;49.546;7.906;2022-11-15T16:17:03;97047.00;;;15.00
20058;BMP180;10189;49.546;7.906;2022-11-15T16:19:29;97042.00;;;14.70
20058;BMP180;10189;49.546;7.906;2022-11-15T16:21:55;97031.00;;;14.70
20058;BMP180;10189;49.546;7.906;2022-11-15T16:24:22;97032.00;;;14.80
20058;BMP180;10189;49.546;7.906;2022-11-15T16:26:49;97021.00;;;14.70
20058;BMP180;10189;49.546;7.906;2022-11-15T16:29:15;97019.00;;;14.70
20058;BMP180;10189;49.546;7.906;2022-11-15T16:31:41;97029.00;;;14.70
20058;BMP180;10189;49.546;7.906;2022-11-15T16:34:07;97020.00;;;14.70
20058;BMP180;10189;49.546;7.906;2022-11-15T16:36:34;97019.00;;;14.70
20058;BMP180;10189;49.546;7.906;2022-11-15T16:39:02;97014.00;;;14.70
20058;BMP180;10189;49.546;7.906;2022-11-15T16:41:32;97017.00;;;14.60
20058;BMP180;10189;49.546;7.906;2022-11-15T16:43:58;97018.00;;;14.60
20058;BMP180;10189;49.546;7.906;2022-11-15T16:46:27;97017.00;;;14.50
20058;BMP180;10189;49.546;7.906;2022-11-15T16:48:54;97023.00;;;14.40
20058;BMP180;10189;49.546;7.906;2022-11-15T16:51:21;97016.00;;;14.40
20058;BMP180;10189;49.546;7.906;2022-11-15T16:53:48;97021.00;;;14.30
20058;BMP180;10189;49.546;7.906;2022-11-15T16:56:27;97024.00;;;14.30
20058;BMP180;10189;49.546;7.906;2022-11-15T16:58:55;97020.00;;;14.30
20058;BMP180;10189;49.546;7.906;2022-11-15T17:01:37;97015.00;;;14.30
20058;BMP180;10189;49.546;7.906;2022-11-15T17:04:14;97016.00;;;14.30
20058;BMP180;10189;49.546;7.906;2022-11-15T17:06:45;97013.00;;;14.20
20058;BMP180;10189;49.546;7.906;2022-11-15T17:09:22;97019.00;;;14.20
20058;BMP180;10189;49.546;7.906;2022-11-15T17:11:51;97014.00;;;14.20
20058;BMP180;10189;49.546;7.906;2022-11-15T17:14:17;97018.00;;;14.30
20058;BMP180;10189;49.546;7.906;2022-11-15T17:16:44;97011.00;;;14.30
20058;BMP180;10189;49.546;7.906;2022-11-15T17:19:15;97016.00;;;14.20
20058;BMP180;10189;49.546;7.906;2022-11-15T17:21:42;97016.00;;;14.20
20058;BMP180;10189;49.546;7.906;2022-11-15T17:24:09;97013.00;;;14.20
20058;BMP180;10189;49.546;7.906;2022-11-15T17:26:36;97009.00;;;14.20
20058;BMP180;10189;49.546;7.906;2022-11-15T17:29:03;97008.00;;;14.10
20058;BMP180;10189;49.546;7.906;2022-11-15T17:31:34;97012.00;;;14.00
20058;BMP180;10189;49.546;7.906;2022-11-15T17:34:01;97006.00;;;14.00
20058;BMP180;10189;49.546;7.906;2022-11-15T17:36:28;97001.00;;;13.90
20058;BMP180;10189;49.546;7.906;2022-11-15T17:38:54;96998.00;;;13.90